createdAt,value
2017-11-14T00:02:14.577Z,2.70
2017-11-14T00:04:47.801Z,2.70
2017-11-14T00:07:20.651Z,2.70
2017-11-14T00:09:53.102Z,2.70
2017-11-14T00:12:25.654Z,2.70
2017-11-14T00:14:58.167Z,2.80
2017-11-14T00:17:30.649Z,2.80
2017-11-14T00:20:03.064Z,2.80
2017-11-14T00:22:35.487Z,2.90
2017-11-14T00:25:07.862Z,2.80
2017-11-14T00:27:40.613Z,2.90
2017-11-14T00:30:13.841Z,2.90
2017-11-14T00:32:46.700Z,2.90
2017-11-14T00:35:19.053Z,2.90
2017-11-14T00:37:51.711Z,2.90
2017-11-14T00:40:24.173Z,2.90
2017-11-14T00:42:57.729Z,3.00
2017-11-14T00:45:30.487Z,3.00
2017-11-14T00:48:02.902Z,3.00
2017-11-14T00:50:35.437Z,3.00
2017-11-14T00:53:08.013Z,3.00
2017-11-14T00:55:41.286Z,3.00
2017-11-14T00:58:14.878Z,3.00
2017-11-14T01:00:48.067Z,3.00
2017-11-14T01:03:21.558Z,3.00
2017-11-14T01:05:54.193Z,2.90
2017-11-14T01:08:26.620Z,3.00
2017-11-14T01:10:59.071Z,3.00
2017-11-14T01:13:31.636Z,3.00
2017-11-14T01:16:04.048Z,2.90
2017-11-14T01:18:36.518Z,2.90
2017-11-14T01:21:10.709Z,2.90
2017-11-14T01:23:43.913Z,2.90
2017-11-14T01:26:17.245Z,2.80
2017-11-14T01:28:49.661Z,2.80
2017-11-14T01:31:22.180Z,2.80
2017-11-14T01:33:55.561Z,2.70
2017-11-14T01:36:28.209Z,2.70
2017-11-14T01:39:00.995Z,2.70
2017-11-14T01:41:34.198Z,2.60
2017-11-14T01:44:06.685Z,2.60
2017-11-14T01:46:39.097Z,2.50
2017-11-14T01:49:11.666Z,2.50
2017-11-14T01:51:45.011Z,2.40
2017-11-14T01:54:18.069Z,2.40
2017-11-14T01:56:50.685Z,2.40
2017-11-14T01:59:23.857Z,2.30
2017-11-14T02:01:56.628Z,2.30
2017-11-14T02:04:29.124Z,2.30
2017-11-14T02:07:01.474Z,2.20
2017-11-14T02:09:34.856Z,2.20
2017-11-14T02:12:08.163Z,2.10
2017-11-14T02:14:41.340Z,2.10
2017-11-14T02:17:14.413Z,2.00
2017-11-14T02:19:47.855Z,2.00
2017-11-14T02:22:20.557Z,2.00
2017-11-14T02:24:53.043Z,2.00
2017-11-14T02:27:25.589Z,2.00
2017-11-14T02:29:58.172Z,2.00
2017-11-14T02:32:30.577Z,2.00
2017-11-14T02:35:03.007Z,1.90
2017-11-14T02:37:37.654Z,1.90
2017-11-14T02:40:11.840Z,1.90
2017-11-14T02:42:44.601Z,1.80
2017-11-14T02:45:17.177Z,1.80
2017-11-14T02:47:49.606Z,1.80
2017-11-14T02:50:22.878Z,1.70
2017-11-14T02:52:56.549Z,1.70
2017-11-14T02:55:29.293Z,1.70
2017-11-14T02:58:01.778Z,1.70
2017-11-14T03:00:34.370Z,1.70
2017-11-14T03:03:13.853Z,1.60
2017-11-14T03:05:47.293Z,1.60
2017-11-14T03:08:20.257Z,1.60
2017-11-14T03:10:53.072Z,1.60
2017-11-14T03:13:25.546Z,1.60
2017-11-14T03:15:58.050Z,1.60
2017-11-14T03:18:30.550Z,1.60
2017-11-14T03:21:03.410Z,1.50
2017-11-14T03:23:35.905Z,1.50
2017-11-14T03:26:08.463Z,1.50
2017-11-14T03:28:41.100Z,1.50
2017-11-14T03:31:14.532Z,1.50
2017-11-14T03:33:47.401Z,1.40
2017-11-14T03:36:20.821Z,1.40
2017-11-14T03:38:53.409Z,1.40
2017-11-14T03:41:25.943Z,1.40
2017-11-14T03:43:59.246Z,1.30
2017-11-14T03:46:32.165Z,1.30
2017-11-14T03:49:04.555Z,1.40
2017-11-14T03:51:37.197Z,1.40
2017-11-14T03:54:10.470Z,1.40
2017-11-14T03:56:43.170Z,1.40
2017-11-14T03:59:17.442Z,1.40
2017-11-14T04:01:50.004Z,1.30
2017-11-14T04:04:24.232Z,1.30
2017-11-14T04:06:57.832Z,1.30
2017-11-14T04:09:30.611Z,1.30
2017-11-14T04:12:04.718Z,1.30
2017-11-14T04:14:37.564Z,1.20
2017-11-14T04:17:10.909Z,1.30
2017-11-14T04:19:44.345Z,1.20
2017-11-14T04:22:17.258Z,1.20
2017-11-14T04:24:49.705Z,1.20
2017-11-14T04:27:22.217Z,1.20
2017-11-14T04:29:54.710Z,1.20
2017-11-14T04:32:28.070Z,1.20
2017-11-14T04:35:00.765Z,1.10
2017-11-14T04:37:33.482Z,1.10
2017-11-14T04:40:05.916Z,1.10
2017-11-14T04:42:38.641Z,1.10
2017-11-14T04:45:11.449Z,1.10
2017-11-14T04:47:43.918Z,1.10
2017-11-14T04:50:16.375Z,1.10
2017-11-14T04:52:49.812Z,1.10
2017-11-14T04:55:22.472Z,1.10
2017-11-14T04:57:55.980Z,1.10
2017-11-14T05:00:28.409Z,1.10
2017-11-14T05:03:01.025Z,1.00
2017-11-14T05:05:33.480Z,1.00
2017-11-14T05:08:05.930Z,0.90
2017-11-14T05:10:39.346Z,1.00
2017-11-14T05:13:12.808Z,1.00
2017-11-14T05:15:46.099Z,0.90
2017-11-14T05:18:19.141Z,0.90
2017-11-14T05:20:51.533Z,1.00
2017-11-14T05:23:23.924Z,1.00
2017-11-14T05:25:57.297Z,1.00
2017-11-14T05:28:29.725Z,1.00
2017-11-14T05:31:02.216Z,1.00
2017-11-14T05:33:34.780Z,1.00
2017-11-14T05:36:08.068Z,1.10
2017-11-14T05:38:40.525Z,0.90
2017-11-14T05:41:13.041Z,0.90
2017-11-14T05:43:45.816Z,0.90
2017-11-14T05:46:19.057Z,0.90
2017-11-14T05:48:51.416Z,0.90
2017-11-14T05:51:23.861Z,0.80
2017-11-14T05:53:56.548Z,0.90
2017-11-14T05:56:29.185Z,0.80
2017-11-14T05:59:02.536Z,0.90
2017-11-14T06:01:34.970Z,1.00
2017-11-14T06:04:07.551Z,0.80
2017-11-14T06:06:40.882Z,0.90
2017-11-14T06:09:13.618Z,0.80
2017-11-14T06:11:46.061Z,0.90
2017-11-14T06:14:18.592Z,0.90
2017-11-14T06:16:51.981Z,0.80
2017-11-14T06:19:24.451Z,0.80
2017-11-14T06:21:56.820Z,0.90
2017-11-14T06:24:29.321Z,0.90
2017-11-14T06:27:02.705Z,1.00
2017-11-14T06:29:35.556Z,0.90
2017-11-14T06:32:08.066Z,0.80
2017-11-14T06:34:40.711Z,0.90
2017-11-14T06:37:13.397Z,0.90
2017-11-14T06:39:45.861Z,1.00
2017-11-14T06:42:18.837Z,0.90
2017-11-14T06:44:51.221Z,1.00
2017-11-14T06:47:23.784Z,1.00
2017-11-14T06:49:57.179Z,1.00
2017-11-14T06:52:30.435Z,0.90
2017-11-14T06:55:03.311Z,0.90
2017-11-14T06:57:36.688Z,0.90
2017-11-14T07:00:09.859Z,1.10
2017-11-14T07:02:42.680Z,1.10
2017-11-14T07:05:16.067Z,1.30
2017-11-14T07:07:48.637Z,1.20
2017-11-14T07:10:21.133Z,1.30
2017-11-14T07:12:54.232Z,1.40
2017-11-14T07:15:27.786Z,1.50
2017-11-14T07:18:00.538Z,1.50
2017-11-14T07:20:35.213Z,1.60
2017-11-14T07:23:07.698Z,1.70
2017-11-14T07:25:41.092Z,1.80
2017-11-14T07:28:13.555Z,1.80
2017-11-14T07:30:45.983Z,2.00
2017-11-14T07:33:18.724Z,2.10
2017-11-14T07:35:51.287Z,2.10
2017-11-14T07:38:24.391Z,2.50
2017-11-14T07:40:57.349Z,2.40
2017-11-14T07:43:30.712Z,2.60
2017-11-14T07:46:04.235Z,2.70
2017-11-14T07:48:37.343Z,2.80
2017-11-14T07:51:09.749Z,2.90
2017-11-14T07:53:42.141Z,3.00
2017-11-14T07:56:14.756Z,3.20
2017-11-14T07:58:47.158Z,3.30
2017-11-14T08:01:20.577Z,3.50
2017-11-14T08:03:53.247Z,3.80
2017-11-14T08:06:25.905Z,4.10
2017-11-14T08:08:58.674Z,4.20
2017-11-14T08:11:31.921Z,4.60
2017-11-14T08:14:04.681Z,4.60
2017-11-14T08:16:37.182Z,4.90
2017-11-14T08:19:10.507Z,5.20
2017-11-14T08:21:43.762Z,5.80
2017-11-14T08:24:16.178Z,6.30
2017-11-14T08:26:49.578Z,6.40
2017-11-14T08:29:22.873Z,6.50
2017-11-14T08:31:56.978Z,6.40
2017-11-14T08:34:29.673Z,6.40
2017-11-14T08:37:02.139Z,6.40
2017-11-14T08:39:34.643Z,6.40
2017-11-14T08:42:08.050Z,6.50
2017-11-14T08:44:40.438Z,6.50
2017-11-14T08:47:12.993Z,6.60
2017-11-14T08:49:45.429Z,6.70
2017-11-14T08:52:18.096Z,6.80
2017-11-14T08:54:50.696Z,7.00
2017-11-14T08:57:23.183Z,7.10
2017-11-14T08:59:56.489Z,7.30
2017-11-14T09:02:28.981Z,7.40
2017-11-14T09:05:02.367Z,7.50
2017-11-14T09:07:35.232Z,7.70
2017-11-14T09:10:07.794Z,7.80
2017-11-14T09:12:40.607Z,7.90
2017-11-14T09:15:13.864Z,8.10
2017-11-14T09:17:47.671Z,8.30
2017-11-14T09:20:20.925Z,8.60
2017-11-14T09:22:53.591Z,8.50
2017-11-14T09:25:26.821Z,8.90
2017-11-14T09:27:59.721Z,8.90
2017-11-14T09:30:32.368Z,9.10
2017-11-14T09:33:06.014Z,9.30
2017-11-14T09:35:38.667Z,9.30
2017-11-14T09:38:11.345Z,9.40
2017-11-14T09:40:44.736Z,9.50
2017-11-14T09:43:18.087Z,9.60
2017-11-14T09:45:51.450Z,9.70
2017-11-14T09:48:24.825Z,9.80
2017-11-14T09:50:58.932Z,9.90
2017-11-14T09:53:31.555Z,9.90
2017-11-14T09:56:04.889Z,10.10
2017-11-14T09:58:37.342Z,10.30
2017-11-14T10:01:09.997Z,10.40
2017-11-14T10:03:44.192Z,10.60
2017-11-14T10:06:16.761Z,10.60
2017-11-14T10:08:49.593Z,10.70
2017-11-14T10:11:23.022Z,10.60
2017-11-14T10:13:55.878Z,10.50
2017-11-14T10:16:29.291Z,10.30
2017-11-14T10:19:01.785Z,9.90
2017-11-14T10:21:34.558Z,9.70
2017-11-14T10:24:07.098Z,9.60
2017-11-14T10:26:40.309Z,9.40
2017-11-14T10:29:12.993Z,9.30
2017-11-14T10:31:46.795Z,8.90
2017-11-14T10:34:19.406Z,8.90
2017-11-14T10:36:52.152Z,8.60
2017-11-14T10:39:24.577Z,8.30
2017-11-14T10:41:57.738Z,8.00
2017-11-14T10:44:30.961Z,7.60
2017-11-14T10:47:03.640Z,7.60
2017-11-14T10:49:36.291Z,7.40
2017-11-14T10:52:09.164Z,7.30
2017-11-14T10:54:41.830Z,7.10
2017-11-14T10:57:15.150Z,7.00
2017-11-14T10:59:48.108Z,6.70
2017-11-14T11:02:22.146Z,6.30
2017-11-14T11:04:55.004Z,6.30
2017-11-14T11:07:28.244Z,6.30
2017-11-14T11:10:00.657Z,6.20
2017-11-14T11:12:33.955Z,6.10
2017-11-14T11:15:08.053Z,6.20
2017-11-14T11:17:40.715Z,6.20
2017-11-14T11:20:14.081Z,6.40
2017-11-14T11:22:47.501Z,6.60
2017-11-14T11:25:20.339Z,6.60
2017-11-14T11:27:53.501Z,6.80
2017-11-14T11:30:26.124Z,6.70
2017-11-14T11:32:58.617Z,6.60
2017-11-14T11:35:31.349Z,6.50
2017-11-14T11:38:04.113Z,6.60
2017-11-14T11:40:37.609Z,6.60
2017-11-14T11:43:10.287Z,6.60
2017-11-14T11:45:42.888Z,6.50
2017-11-14T11:48:16.125Z,6.50
2017-11-14T11:50:49.656Z,6.40
2017-11-14T11:53:23.075Z,6.30
2017-11-14T11:55:57.317Z,6.10
2017-11-14T11:58:29.889Z,6.10
2017-11-14T12:01:02.474Z,6.10
2017-11-14T12:03:35.753Z,6.00
2017-11-14T12:06:08.977Z,6.00
2017-11-14T12:08:41.442Z,6.00
2017-11-14T12:11:13.861Z,6.10
2017-11-14T12:13:47.324Z,6.10
2017-11-14T12:16:21.417Z,6.00
2017-11-14T12:18:54.108Z,6.00
2017-11-14T12:21:26.798Z,6.00
2017-11-14T12:23:59.942Z,5.90
2017-11-14T12:26:33.025Z,5.80
2017-11-14T12:29:05.538Z,5.80
2017-11-14T12:31:39.053Z,5.60
2017-11-14T12:34:12.426Z,5.60
2017-11-14T12:36:45.013Z,5.50
2017-11-14T12:39:18.368Z,5.40
2017-11-14T12:41:51.449Z,5.40
2017-11-14T12:44:24.738Z,5.30
2017-11-14T12:46:57.452Z,5.30
2017-11-14T12:49:30.088Z,5.20
2017-11-14T12:52:02.562Z,5.20
2017-11-14T12:54:35.046Z,5.10
2017-11-14T12:57:07.610Z,5.10
2017-11-14T12:59:41.030Z,5.00
2017-11-14T13:02:13.586Z,5.00
2017-11-14T13:04:46.138Z,5.00
2017-11-14T13:07:18.721Z,4.90
2017-11-14T13:09:51.158Z,4.90
2017-11-14T13:12:24.531Z,4.90
2017-11-14T13:14:57.329Z,4.90
2017-11-14T13:17:29.902Z,4.90
2017-11-14T13:20:02.385Z,4.90
2017-11-14T13:22:35.632Z,4.90
2017-11-14T13:25:09.021Z,4.80
2017-11-14T13:27:41.818Z,4.80
2017-11-14T13:30:14.434Z,4.80
2017-11-14T13:32:47.861Z,4.80
2017-11-14T13:35:21.278Z,4.80
2017-11-14T13:37:53.774Z,4.70
2017-11-14T13:40:27.109Z,4.70
2017-11-14T13:43:00.392Z,4.60
2017-11-14T13:45:33.062Z,4.60
2017-11-14T13:48:05.494Z,4.60
2017-11-14T13:50:38.754Z,4.60
2017-11-14T13:53:11.338Z,4.50
2017-11-14T13:55:43.673Z,4.50
2017-11-14T13:58:16.044Z,4.40
2017-11-14T14:00:48.929Z,4.40
2017-11-14T14:03:21.405Z,4.40
2017-11-14T14:05:54.841Z,4.30
2017-11-14T14:08:27.796Z,4.30
2017-11-14T14:11:00.225Z,4.30
2017-11-14T14:13:32.812Z,4.30
2017-11-14T14:16:06.676Z,4.30
2017-11-14T14:18:39.850Z,4.30
2017-11-14T14:21:13.084Z,4.30
2017-11-14T14:23:45.439Z,4.10
2017-11-14T14:26:17.874Z,4.10
2017-11-14T14:28:50.549Z,4.00
2017-11-14T14:31:23.016Z,3.90
2017-11-14T14:33:56.342Z,3.80
2017-11-14T14:36:29.588Z,3.80
2017-11-14T14:39:03.276Z,3.70
2017-11-14T14:41:36.851Z,3.70
2017-11-14T14:44:09.607Z,3.70
2017-11-14T14:46:42.885Z,3.60
2017-11-14T14:49:15.372Z,3.60
2017-11-14T14:51:47.993Z,3.50
2017-11-14T14:54:20.916Z,3.50
2017-11-14T14:56:54.899Z,3.30
2017-11-14T14:59:27.674Z,3.30
2017-11-14T15:02:00.056Z,3.10
2017-11-14T15:04:33.496Z,3.10
2017-11-14T15:07:06.013Z,3.00
2017-11-14T15:09:38.799Z,3.00
2017-11-14T15:12:11.321Z,3.00
2017-11-14T15:14:43.868Z,2.90
2017-11-14T15:17:17.163Z,2.80
2017-11-14T15:19:50.667Z,2.80
2017-11-14T15:22:23.543Z,2.70
2017-11-14T15:24:55.969Z,2.70
2017-11-14T15:27:28.480Z,2.70
2017-11-14T15:30:01.171Z,2.60
2017-11-14T15:32:34.333Z,2.50
2017-11-14T15:35:06.893Z,2.50
2017-11-14T15:37:39.361Z,2.50
2017-11-14T15:40:12.138Z,2.60
2017-11-14T15:42:44.589Z,2.60
2017-11-14T15:45:17.346Z,2.60
2017-11-14T15:47:51.773Z,2.60
2017-11-14T15:50:25.148Z,2.60
2017-11-14T15:52:57.518Z,2.60
2017-11-14T15:55:30.509Z,2.60
2017-11-14T15:58:03.669Z,2.60
2017-11-14T16:00:36.845Z,2.60
2017-11-14T16:03:10.693Z,2.60
2017-11-14T16:05:44.358Z,2.60
2017-11-14T16:08:17.035Z,2.60
2017-11-14T16:10:50.274Z,2.60
2017-11-14T16:13:22.935Z,2.70
2017-11-14T16:15:55.522Z,2.70
2017-11-14T16:18:29.605Z,2.80
2017-11-14T16:21:03.494Z,2.80
2017-11-14T16:23:36.849Z,2.80
2017-11-14T16:26:10.245Z,2.70
2017-11-14T16:28:42.810Z,2.70
2017-11-14T16:31:15.436Z,2.70
2017-11-14T16:33:47.858Z,2.60
2017-11-14T16:36:20.374Z,2.60
2017-11-14T16:38:54.454Z,2.60
2017-11-14T16:41:27.987Z,2.60
2017-11-14T16:44:01.403Z,2.50
2017-11-14T16:46:34.221Z,2.60
2017-11-14T16:49:06.767Z,2.60
2017-11-14T16:51:40.165Z,2.60
2017-11-14T16:54:13.385Z,2.50
2017-11-14T16:56:45.887Z,2.60
2017-11-14T16:59:19.278Z,2.60
2017-11-14T17:01:52.754Z,2.60
2017-11-14T17:04:26.165Z,2.60
2017-11-14T17:06:59.467Z,2.60
2017-11-14T17:09:31.963Z,2.60
2017-11-14T17:12:05.524Z,2.50
2017-11-14T17:14:39.000Z,2.50
2017-11-14T17:17:12.452Z,2.50
2017-11-14T17:19:45.063Z,2.50
2017-11-14T17:22:18.465Z,2.50
2017-11-14T17:24:51.061Z,2.40
2017-11-14T17:27:23.665Z,2.30
2017-11-14T17:29:56.232Z,2.30
2017-11-14T17:32:28.849Z,2.20
2017-11-14T17:35:01.293Z,2.20
2017-11-14T17:37:33.901Z,2.20
2017-11-14T17:40:06.564Z,2.10
2017-11-14T17:42:39.406Z,2.00
2017-11-14T17:45:11.750Z,2.00
2017-11-14T17:47:45.073Z,2.00
2017-11-14T17:50:19.119Z,2.00
2017-11-14T17:52:51.934Z,2.00
2017-11-14T17:55:25.118Z,2.00
2017-11-14T17:57:57.741Z,2.00
2017-11-14T18:00:31.039Z,2.00
2017-11-14T18:03:04.457Z,2.10
2017-11-14T18:05:37.808Z,2.20
2017-11-14T18:08:11.164Z,2.20
2017-11-14T18:10:44.045Z,2.20
2017-11-14T18:13:16.465Z,2.30
2017-11-14T18:15:49.005Z,2.30
2017-11-14T18:18:21.566Z,2.30
2017-11-14T18:20:55.854Z,2.30
2017-11-14T18:23:28.560Z,2.30
2017-11-14T18:26:01.033Z,2.30
2017-11-14T18:28:33.819Z,2.30
2017-11-14T18:31:08.005Z,2.40
2017-11-14T18:33:41.298Z,2.40
2017-11-14T18:36:16.092Z,2.40
2017-11-14T18:38:51.649Z,2.40
2017-11-14T18:41:26.773Z,2.50
2017-11-14T18:44:02.416Z,2.50
2017-11-14T18:46:37.771Z,2.50
2017-11-14T18:49:13.315Z,2.50
2017-11-14T18:51:48.257Z,2.50
2017-11-14T18:54:23.934Z,2.50
2017-11-14T18:57:00.582Z,2.50
2017-11-14T18:59:36.178Z,2.50
2017-11-14T19:02:11.491Z,2.60
2017-11-14T19:04:47.163Z,2.50
2017-11-14T19:07:22.363Z,2.50
2017-11-14T19:09:58.838Z,2.50
2017-11-14T19:12:34.495Z,2.50
2017-11-14T19:15:10.112Z,2.50
2017-11-14T19:17:46.340Z,2.40
2017-11-14T19:20:22.222Z,2.40
2017-11-14T19:22:58.297Z,2.40
2017-11-14T19:25:33.894Z,2.40
2017-11-14T19:28:09.128Z,2.40
2017-11-14T19:30:44.775Z,2.40
2017-11-14T19:33:20.980Z,2.40
2017-11-14T19:35:55.204Z,2.30
2017-11-14T19:38:29.398Z,2.40
2017-11-14T19:41:04.714Z,2.40
2017-11-14T19:43:39.447Z,2.40
2017-11-14T19:46:13.800Z,2.40
2017-11-14T19:48:48.114Z,2.40
2017-11-14T19:51:22.905Z,2.30
2017-11-14T19:53:57.993Z,2.30
2017-11-14T19:56:33.521Z,2.30
2017-11-14T19:59:08.226Z,2.30
2017-11-14T20:01:43.990Z,2.30
2017-11-14T20:04:20.401Z,2.30
2017-11-14T20:06:56.914Z,2.20
2017-11-14T20:09:32.246Z,2.20
2017-11-14T20:12:08.363Z,2.20
2017-11-14T20:14:44.182Z,2.20
2017-11-14T20:17:19.260Z,2.20
2017-11-14T20:19:54.225Z,2.30
2017-11-14T20:22:29.781Z,2.30
2017-11-14T20:25:05.185Z,2.30
2017-11-14T20:27:39.954Z,2.40
2017-11-14T20:30:14.057Z,2.40
2017-11-14T20:32:48.740Z,2.50
2017-11-14T20:35:24.752Z,2.50
2017-11-14T20:38:00.034Z,2.50
2017-11-14T20:40:34.849Z,2.50
2017-11-14T20:43:09.132Z,2.60
2017-11-14T20:45:46.018Z,2.60
2017-11-14T20:48:22.410Z,2.60
2017-11-14T20:50:58.940Z,2.60
2017-11-14T20:53:33.967Z,2.70
2017-11-14T20:56:08.523Z,2.60
2017-11-14T20:58:43.988Z,2.60
2017-11-14T21:01:20.254Z,2.70
2017-11-14T21:03:55.105Z,2.70
2017-11-14T21:06:31.245Z,2.80
2017-11-14T21:09:05.910Z,2.70
2017-11-14T21:11:39.904Z,2.80
2017-11-14T21:14:14.840Z,2.80
2017-11-14T21:16:50.497Z,2.80
2017-11-14T21:19:24.819Z,2.80
2017-11-14T21:22:00.399Z,2.90
2017-11-14T21:24:35.978Z,3.00
2017-11-14T21:27:11.121Z,3.00
2017-11-14T21:29:45.480Z,3.00
2017-11-14T21:32:21.047Z,3.10
2017-11-14T21:34:56.523Z,3.10
2017-11-14T21:37:30.615Z,3.10
2017-11-14T21:40:06.578Z,3.10
2017-11-14T21:42:41.317Z,3.10
2017-11-14T21:45:16.326Z,3.10
2017-11-14T21:47:52.003Z,3.10
2017-11-14T21:50:27.534Z,3.10
2017-11-14T21:53:01.199Z,3.10
2017-11-14T21:55:34.649Z,3.10
2017-11-14T21:58:08.547Z,3.00
2017-11-14T22:00:41.955Z,3.00
2017-11-14T22:03:15.103Z,3.00
2017-11-14T22:05:47.670Z,3.00
2017-11-14T22:08:21.047Z,3.00
2017-11-14T22:10:53.448Z,3.00
2017-11-14T22:13:26.752Z,2.90
2017-11-14T22:15:59.325Z,3.00
2017-11-14T22:18:31.898Z,2.90
2017-11-14T22:21:05.185Z,2.90
2017-11-14T22:23:37.945Z,2.90
2017-11-14T22:26:10.889Z,2.90
2017-11-14T22:28:44.161Z,2.90
2017-11-14T22:31:16.782Z,2.90
2017-11-14T22:33:49.385Z,3.00
2017-11-14T22:36:21.913Z,3.00
2017-11-14T22:38:55.177Z,3.00
2017-11-14T22:41:28.086Z,3.00
2017-11-14T22:44:00.614Z,3.00
2017-11-14T22:46:33.881Z,3.00
2017-11-14T22:49:07.405Z,3.00
2017-11-14T22:51:40.134Z,3.00
2017-11-14T22:54:13.265Z,3.00
2017-11-14T22:56:46.057Z,3.00
2017-11-14T22:59:18.548Z,3.00
2017-11-14T23:01:52.698Z,2.90
2017-11-14T23:04:25.454Z,2.90
2017-11-14T23:06:58.453Z,2.80
2017-11-14T23:09:31.015Z,2.80
2017-11-14T23:12:03.619Z,2.80
2017-11-14T23:14:36.034Z,2.70
2017-11-14T23:17:08.734Z,2.70
2017-11-14T23:19:42.725Z,2.70
2017-11-14T23:22:15.491Z,2.70
2017-11-14T23:24:49.627Z,2.60
2017-11-14T23:27:22.505Z,2.60
2017-11-14T23:29:55.276Z,2.60
2017-11-14T23:32:28.002Z,2.60
2017-11-14T23:35:00.677Z,2.60
2017-11-14T23:37:34.967Z,2.50
2017-11-14T23:40:07.638Z,2.50
2017-11-14T23:42:40.398Z,2.40
2017-11-14T23:45:13.738Z,2.40
2017-11-14T23:47:47.017Z,2.50
2017-11-14T23:50:21.117Z,2.40
2017-11-14T23:52:53.958Z,2.40
2017-11-14T23:55:27.625Z,2.40
2017-11-14T23:58:01.109Z,2.40
